Time;durP1;ratioP1;P1;durP2;ratioP2;P2;SDS_P1;SDS_P2;PMS_P1;PMS_P2;Temp;Humidity;BMP_temperature;BMP_pressure;BME280_temperature;BME280_humidity;BME280_pressure;Samples;Min_cycle;Max_cycle;Signal;HPM_P1;HPM_P2
2023/10/23 00:01:22;;;;;;;11.18;6.07;;;8.10;99.90;;;;;;5019347;28;20453;-65
2023/10/23 00:03:48;;;;;;;11.75;6.50;;;8.00;99.90;;;;;;5021470;28;20134;-66
2023/10/23 00:06:14;;;;;;;11.27;6.40;;;8.00;99.90;;;;;;5011699;28;20545;-65
2023/10/23 00:08:40;;;;;;;12.30;6.28;;;8.10;99.90;;;;;;5015372;28;20041;-65
2023/10/23 00:11:05;;;;;;;11.15;6.63;;;8.10;99.90;;;;;;5028319;28;20048;-66
2023/10/23 00:13:31;;;;;;;10.27;7.07;;;8.10;99.90;;;;;;5003205;28;20059;-65
2023/10/23 00:15:57;;;;;;;10.88;6.35;;;8.10;99.90;;;;;;5004462;28;20041;-65
2023/10/23 00:18:22;;;;;;;13.40;6.53;;;8.00;99.90;;;;;;5023365;28;20037;-66
2023/10/23 00:20:48;;;;;;;9.90;6.32;;;8.10;99.90;;;;;;5018740;28;20136;-65
2023/10/23 00:23:14;;;;;;;12.18;6.90;;;8.10;99.90;;;;;;5015745;28;20304;-66
2023/10/23 00:25:39;;;;;;;8.98;7.07;;;8.10;99.90;;;;;;5018152;28;20127;-66
2023/10/23 00:28:05;;;;;;;9.93;6.25;;;8.00;99.90;;;;;;5014916;28;20040;-65
2023/10/23 00:30:35;;;;;;;14.60;6.45;;;8.00;99.90;;;;;;5003202;28;20537;-65
2023/10/23 00:33:01;;;;;;;8.63;5.85;;;8.00;99.90;;;;;;5019310;28;20043;-66
2023/10/23 00:35:26;;;;;;;7.50;5.50;;;8.00;99.90;;;;;;5030762;28;20411;-65
2023/10/23 00:37:52;;;;;;;7.60;5.57;;;8.00;99.90;;;;;;5021572;28;20048;-66
2023/10/23 00:40:18;;;;;;;8.80;5.40;;;7.90;99.90;;;;;;5020593;28;20048;-66
2023/10/23 00:42:43;;;;;;;8.07;5.63;;;7.90;99.90;;;;;;5013289;28;20132;-65
2023/10/23 00:45:09;;;;;;;11.70;5.72;;;7.90;99.90;;;;;;4997815;28;20045;-65
2023/10/23 00:47:35;;;;;;;10.38;5.90;;;7.90;99.90;;;;;;4955186;28;20044;-66
2023/10/23 00:50:03;;;;;;;9.75;5.50;;;7.80;99.90;;;;;;4995801;28;20048;-66
2023/10/23 00:52:29;;;;;;;11.48;5.88;;;7.80;99.90;;;;;;4996664;28;21057;-65
2023/10/23 00:54:56;;;;;;;9.15;5.95;;;7.80;99.90;;;;;;4982513;28;20219;-66
2023/10/23 00:57:22;;;;;;;8.65;6.47;;;7.80;99.90;;;;;;4981183;28;20033;-65
2023/10/23 00:59:49;;;;;;;8.75;6.20;;;7.80;99.90;;;;;;4996806;28;20060;-65
2023/10/23 01:02:15;;;;;;;9.00;6.70;;;7.80;99.90;;;;;;5015898;28;20045;-65
2023/10/23 01:04:41;;;;;;;11.07;7.25;;;7.80;99.90;;;;;;5006635;28;20037;-65
2023/10/23 01:07:08;;;;;;;10.30;7.07;;;7.70;99.90;;;;;;4999501;28;20064;-65
2023/10/23 01:09:33;;;;;;;11.65;7.00;;;7.80;99.90;;;;;;4981882;28;20514;-65
2023/10/23 01:11:59;;;;;;;10.77;7.03;;;7.80;99.90;;;;;;5013986;28;20045;-66
2023/10/23 01:14:25;;;;;;;11.43;6.38;;;7.80;99.90;;;;;;5013786;28;20048;-66
2023/10/23 01:16:50;;;;;;;11.23;7.18;;;7.80;99.90;;;;;;4990700;28;20045;-66
2023/10/23 01:19:16;;;;;;;9.17;6.63;;;7.80;99.90;;;;;;5024464;28;20124;-65
2023/10/23 01:21:42;;;;;;;7.75;6.22;;;7.70;99.90;;;;;;5019231;28;20273;-65
2023/10/23 01:24:09;;;;;;;10.20;7.15;;;7.70;99.90;;;;;;5012349;28;20034;-66
2023/10/23 01:26:34;;;;;;;9.02;6.20;;;7.70;99.90;;;;;;5014590;28;20076;-66
2023/10/23 01:29:00;;;;;;;7.65;6.32;;;7.70;99.90;;;;;;4980918;28;20195;-66
2023/10/23 01:31:26;;;;;;;8.23;5.90;;;7.60;99.90;;;;;;4981579;28;20100;-65
2023/10/23 01:33:51;;;;;;;8.50;5.78;;;7.60;99.90;;;;;;5017043;28;20506;-66
2023/10/23 01:36:17;;;;;;;7.95;5.78;;;7.50;99.90;;;;;;4978454;28;20038;-65
2023/10/23 01:38:43;;;;;;;7.25;5.43;;;7.50;99.90;;;;;;4981528;28;20400;-65
2023/10/23 01:41:09;;;;;;;7.03;4.90;;;7.40;99.90;;;;;;5001729;28;20525;-66
2023/10/23 01:43:35;;;;;;;7.43;5.15;;;7.40;99.90;;;;;;4993196;28;20053;-66
2023/10/23 01:46:00;;;;;;;7.25;5.32;;;7.40;99.90;;;;;;5008646;28;20787;-66
2023/10/23 01:48:26;;;;;;;12.25;6.13;;;7.30;99.90;;;;;;4992273;28;20052;-65
2023/10/23 01:50:52;;;;;;;10.65;6.00;;;7.30;99.90;;;;;;5011105;28;20049;-65
2023/10/23 01:53:18;;;;;;;8.32;5.68;;;7.30;99.90;;;;;;5007287;28;20044;-65
2023/10/23 01:55:44;;;;;;;8.63;5.70;;;7.30;99.90;;;;;;5006086;28;20408;-65
2023/10/23 01:58:09;;;;;;;7.25;6.07;;;7.30;99.90;;;;;;5012385;28;20109;-66
2023/10/23 02:00:35;;;;;;;6.93;5.20;;;7.20;99.90;;;;;;5007172;28;20046;-65
2023/10/23 02:03:01;;;;;;;7.20;5.30;;;7.20;99.90;;;;;;5021516;28;20463;-65
2023/10/23 02:05:27;;;;;;;6.97;4.95;;;7.20;99.90;;;;;;5007596;28;20098;-66
2023/10/23 02:07:52;;;;;;;7.40;4.95;;;7.10;99.90;;;;;;5008137;28;20739;-66
2023/10/23 02:10:18;;;;;;;6.30;4.88;;;7.00;99.90;;;;;;4979492;28;20044;-65
2023/10/23 02:12:44;;;;;;;6.55;4.75;;;7.00;99.90;;;;;;5002890;28;20110;-65
2023/10/23 02:15:10;;;;;;;5.20;4.45;;;7.00;99.90;;;;;;5015518;28;20037;-65
2023/10/23 02:17:38;;;;;;;6.72;4.95;;;6.90;99.90;;;;;;5025743;28;20045;-65
2023/10/23 02:20:05;;;;;;;7.18;4.53;;;6.90;99.90;;;;;;5001793;28;20037;-66
2023/10/23 02:22:32;;;;;;;10.88;5.75;;;6.80;99.90;;;;;;5015658;28;20033;-65
2023/10/23 02:24:57;;;;;;;18.42;6.75;;;6.80;99.90;;;;;;5034277;28;20115;-66
2023/10/23 02:27:23;;;;;;;9.90;6.47;;;6.80;99.90;;;;;;5012428;28;20151;-65
2023/10/23 02:29:49;;;;;;;7.50;6.03;;;6.80;99.90;;;;;;5010419;28;20044;-65
2023/10/23 02:32:15;;;;;;;9.48;6.72;;;6.80;99.90;;;;;;5014991;28;20045;-65
2023/10/23 02:34:42;;;;;;;11.15;7.18;;;6.80;99.90;;;;;;5001079;28;20044;-65
2023/10/23 02:37:08;;;;;;;12.15;6.80;;;6.80;99.90;;;;;;5015297;28;20088;-66
2023/10/23 02:39:34;;;;;;;9.25;6.28;;;6.80;99.90;;;;;;5015992;28;20120;-65
2023/10/23 02:42:00;;;;;;;8.38;5.88;;;6.80;99.90;;;;;;5026905;28;20510;-65
2023/10/23 02:44:26;;;;;;;7.25;5.68;;;6.80;99.90;;;;;;5001529;28;20171;-65
2023/10/23 02:46:51;;;;;;;8.20;5.55;;;6.80;99.90;;;;;;5012522;28;20257;-66
2023/10/23 02:49:17;;;;;;;7.72;5.88;;;6.70;99.90;;;;;;5006771;28;20029;-65
2023/10/23 02:51:43;;;;;;;8.20;5.97;;;6.70;99.90;;;;;;5030776;28;20045;-65
2023/10/23 02:54:09;;;;;;;9.35;6.60;;;6.60;99.90;;;;;;5015154;28;20446;-65
2023/10/23 02:56:35;;;;;;;12.57;6.13;;;6.70;99.90;;;;;;5016287;28;20042;-65
2023/10/23 02:59:01;;;;;;;8.45;6.70;;;6.60;99.90;;;;;;5000453;28;20048;-65
2023/10/23 03:01:26;;;;;;;10.40;6.57;;;6.60;99.90;;;;;;5011945;28;20479;-65
2023/10/23 03:03:52;;;;;;;9.40;6.57;;;6.60;99.90;;;;;;5025391;28;20029;-65
2023/10/23 03:06:18;;;;;;;10.38;7.10;;;6.60;99.90;;;;;;5015807;28;20041;-66
2023/10/23 03:08:43;;;;;;;11.57;7.93;;;6.70;99.90;;;;;;4998152;28;20048;-65
2023/10/23 03:11:09;;;;;;;10.27;7.32;;;6.70;99.90;;;;;;5015828;28;20045;-66
2023/10/23 03:13:35;;;;;;;9.70;6.68;;;6.60;99.90;;;;;;5013033;28;20121;-65
2023/10/23 03:16:01;;;;;;;10.30;7.25;;;6.60;99.90;;;;;;5030489;28;20044;-66
2023/10/23 03:18:27;;;;;;;8.23;6.35;;;6.60;99.90;;;;;;4993652;28;20939;-65
2023/10/23 03:20:57;;;;;;;11.02;6.63;;;6.60;99.90;;;;;;5023554;28;20042;-65
2023/10/23 03:23:23;;;;;;;8.48;6.28;;;6.50;99.90;;;;;;5006045;28;20049;-65
2023/10/23 03:25:48;;;;;;;13.75;7.07;;;6.40;99.90;;;;;;5010391;28;20454;-65
2023/10/23 03:28:14;;;;;;;11.95;8.07;;;6.40;99.90;;;;;;5014043;28;20603;-66
2023/10/23 03:30:40;;;;;;;11.52;7.45;;;6.50;99.90;;;;;;5006292;28;20531;-66
2023/10/23 03:33:05;;;;;;;11.52;8.30;;;6.50;99.90;;;;;;5009025;28;20081;-65
2023/10/23 03:35:32;;;;;;;12.10;8.60;;;6.50;99.90;;;;;;5006837;28;20038;-65
2023/10/23 03:37:58;;;;;;;11.48;8.20;;;6.50;99.90;;;;;;4992525;28;20462;-65
2023/10/23 03:40:24;;;;;;;13.98;8.38;;;6.50;99.90;;;;;;5008670;28;20050;-65
2023/10/23 03:42:50;;;;;;;11.45;8.18;;;6.60;99.90;;;;;;4995917;28;20133;-65
2023/10/23 03:45:16;;;;;;;12.18;8.77;;;6.60;99.90;;;;;;4969114;28;20050;-66
2023/10/23 03:47:42;;;;;;;13.70;8.07;;;6.60;99.90;;;;;;4992197;28;20044;-65
2023/10/23 03:50:08;;;;;;;10.80;8.10;;;6.60;99.90;;;;;;5011552;28;20049;-65
2023/10/23 03:52:33;;;;;;;12.40;9.25;;;6.60;99.90;;;;;;4998714;28;20042;-65
2023/10/23 03:54:59;;;;;;;13.70;9.00;;;6.60;99.90;;;;;;5012012;28;20045;-65
2023/10/23 03:57:25;;;;;;;14.45;9.23;;;6.60;99.90;;;;;;5006472;28;20080;-65
2023/10/23 03:59:50;;;;;;;14.05;9.15;;;6.60;99.90;;;;;;4982009;28;20041;-65
2023/10/23 04:02:16;;;;;;;14.50;8.88;;;6.60;99.90;;;;;;4977247;28;20498;-65
2023/10/23 04:04:42;;;;;;;13.23;8.18;;;6.60;99.90;;;;;;5001481;28;20041;-65
2023/10/23 04:07:07;;;;;;;11.50;7.95;;;6.60;99.90;;;;;;4992193;28;20120;-65
2023/10/23 04:09:33;;;;;;;10.57;7.82;;;6.50;99.90;;;;;;4997838;28;20603;-66
2023/10/23 04:11:59;;;;;;;12.68;8.77;;;6.50;99.90;;;;;;4977687;28;20037;-65
2023/10/23 04:14:25;;;;;;;14.35;9.23;;;6.40;99.90;;;;;;5001098;28;20038;-65
2023/10/23 04:16:50;;;;;;;12.05;8.70;;;6.40;99.90;;;;;;5008643;28;20049;-65
2023/10/23 04:19:16;;;;;;;12.10;8.25;;;6.40;99.90;;;;;;5019966;28;20053;-66
2023/10/23 04:21:42;;;;;;;12.80;8.52;;;6.40;99.90;;;;;;4993780;28;20042;-65
2023/10/23 04:24:11;;;;;;;9.52;7.53;;;6.40;99.90;;;;;;4994039;28;20404;-66
2023/10/23 04:26:38;;;;;;;12.85;8.07;;;6.40;99.90;;;;;;5010524;28;20045;-65
2023/10/23 04:29:03;;;;;;;15.23;8.80;;;6.40;99.90;;;;;;4995431;28;20048;-65
2023/10/23 04:31:29;;;;;;;12.30;7.85;;;6.30;99.90;;;;;;4998801;28;20480;-65
2023/10/23 04:33:55;;;;;;;10.20;7.47;;;6.30;99.90;;;;;;4996211;28;20047;-66
2023/10/23 04:36:21;;;;;;;9.13;7.30;;;6.30;99.90;;;;;;4995576;28;20044;-65
2023/10/23 04:38:47;;;;;;;11.00;7.53;;;6.30;99.90;;;;;;4995627;28;20041;-66
2023/10/23 04:41:13;;;;;;;9.70;7.70;;;6.20;99.90;;;;;;5009744;28;23914;-65
2023/10/23 04:43:40;;;;;;;11.57;8.30;;;6.20;99.90;;;;;;5012081;28;20054;-65
2023/10/23 04:46:06;;;;;;;11.00;8.07;;;6.20;99.90;;;;;;5018232;28;20056;-65
2023/10/23 04:48:32;;;;;;;11.05;7.85;;;6.10;99.90;;;;;;5011163;28;20068;-66
2023/10/23 04:50:59;;;;;;;9.43;7.57;;;6.10;99.90;;;;;;5017212;28;20042;-66
2023/10/23 04:53:25;;;;;;;10.25;7.80;;;6.10;99.90;;;;;;5014147;28;20045;-66
2023/10/23 04:55:51;;;;;;;8.88;7.55;;;6.10;99.90;;;;;;5017754;28;20046;-65
2023/10/23 04:58:17;;;;;;;10.25;7.88;;;6.10;99.90;;;;;;5015176;28;20076;-65
2023/10/23 05:00:44;;;;;;;9.90;7.60;;;5.90;99.90;;;;;;5014510;28;20049;-65
2023/10/23 05:03:09;;;;;;;10.30;7.80;;;6.00;99.90;;;;;;5024724;28;20538;-65
2023/10/23 05:05:36;;;;;;;9.40;7.22;;;6.00;99.90;;;;;;5012963;28;20034;-65
2023/10/23 05:08:03;;;;;;;10.18;7.53;;;5.90;99.90;;;;;;5013365;28;20504;-65
2023/10/23 05:10:30;;;;;;;12.15;8.32;;;5.90;99.90;;;;;;5018516;28;22262;-65
2023/10/23 05:12:56;;;;;;;13.48;7.78;;;5.80;99.90;;;;;;4999488;28;20045;-66
2023/10/23 05:15:22;;;;;;;11.18;8.48;;;5.90;99.90;;;;;;4988120;28;20152;-65
2023/10/23 05:17:48;;;;;;;10.23;8.25;;;5.90;99.90;;;;;;5016183;28;20184;-66
2023/10/23 05:20:14;;;;;;;12.10;8.00;;;5.90;99.90;;;;;;5015821;28;20076;-65
2023/10/23 05:22:40;;;;;;;10.10;8.05;;;5.90;99.90;;;;;;5034070;28;20112;-66
2023/10/23 05:25:08;;;;;;;10.30;8.23;;;5.90;99.90;;;;;;5013787;28;20144;-66
2023/10/23 05:27:35;;;;;;;11.40;8.02;;;5.90;99.90;;;;;;5014005;28;20111;-65
2023/10/23 05:30:03;;;;;;;9.30;7.38;;;5.90;99.90;;;;;;5028199;28;20045;-65
2023/10/23 05:32:29;;;;;;;11.63;8.15;;;5.80;99.90;;;;;;5008269;28;20454;-65
2023/10/23 05:34:55;;;;;;;11.52;7.75;;;5.80;99.90;;;;;;5015799;28;20076;-66
2023/10/23 05:37:21;;;;;;;9.00;7.28;;;5.80;99.90;;;;;;5029536;28;20408;-65
2023/10/23 05:39:46;;;;;;;10.23;7.20;;;5.80;99.90;;;;;;5015078;28;20045;-65
2023/10/23 05:42:13;;;;;;;10.45;7.78;;;5.80;99.90;;;;;;5015902;28;20050;-66
2023/10/23 05:44:38;;;;;;;10.55;7.45;;;5.70;99.90;;;;;;5018208;28;20089;-66
2023/10/23 05:47:04;;;;;;;12.25;8.27;;;5.70;99.90;;;;;;5005251;28;20132;-64
2023/10/23 05:49:30;;;;;;;12.30;9.02;;;5.70;99.90;;;;;;5014912;28;20040;-66
2023/10/23 05:51:55;;;;;;;11.25;8.20;;;5.70;99.90;;;;;;5028265;28;20056;-66
2023/10/23 05:54:21;;;;;;;11.88;8.50;;;5.70;99.90;;;;;;4997409;28;20656;-65
2023/10/23 05:56:47;;;;;;;13.95;8.20;;;5.70;99.90;;;;;;5027331;28;20040;-66
2023/10/23 05:59:12;;;;;;;11.80;8.13;;;5.70;99.90;;;;;;5011755;28;20044;-65
2023/10/23 06:01:38;;;;;;;10.82;8.07;;;5.70;99.90;;;;;;5032331;28;20424;-66
2023/10/23 06:04:04;;;;;;;9.95;7.70;;;5.70;99.90;;;;;;4996344;28;20107;-66
2023/10/23 06:06:31;;;;;;;12.43;8.27;;;5.70;99.90;;;;;;5014824;28;20763;-65
2023/10/23 06:08:56;;;;;;;10.57;7.72;;;5.70;99.90;;;;;;5009777;28;20041;-66
2023/10/23 06:11:23;;;;;;;10.90;7.50;;;5.60;99.90;;;;;;5008656;28;20124;-65
2023/10/23 06:13:49;;;;;;;14.07;7.82;;;5.60;99.90;;;;;;5026350;28;20041;-66
2023/10/23 06:16:15;;;;;;;11.10;7.85;;;5.60;99.90;;;;;;5021191;28;20997;-65
2023/10/23 06:18:41;;;;;;;17.45;9.20;;;5.50;99.90;;;;;;4976772;28;20049;-66
2023/10/23 06:21:07;;;;;;;13.18;8.68;;;5.60;99.90;;;;;;5027296;28;20072;-65
2023/10/23 06:23:34;;;;;;;12.35;9.05;;;5.50;99.90;;;;;;5027618;28;20043;-65
2023/10/23 06:26:00;;;;;;;21.88;11.85;;;5.50;99.90;;;;;;5017749;28;20122;-66
2023/10/23 06:28:26;;;;;;;17.65;10.70;;;5.60;99.90;;;;;;5030709;28;20594;-66
2023/10/23 06:30:52;;;;;;;15.50;10.98;;;5.60;99.90;;;;;;5014953;28;20139;-65
2023/10/23 06:33:18;;;;;;;18.85;11.38;;;5.70;99.90;;;;;;5029108;28;20649;-66
2023/10/23 06:35:43;;;;;;;16.65;10.35;;;5.70;99.90;;;;;;5043436;28;20046;-66
2023/10/23 06:38:09;;;;;;;17.05;10.13;;;5.70;99.90;;;;;;5027560;28;20048;-66
2023/10/23 06:40:35;;;;;;;15.80;9.60;;;5.70;99.90;;;;;;5025521;28;20044;-66
2023/10/23 06:43:01;;;;;;;15.25;9.85;;;5.70;99.90;;;;;;5008285;28;20076;-66
2023/10/23 06:45:26;;;;;;;13.40;9.65;;;5.70;99.90;;;;;;5007663;28;20052;-66
2023/10/23 06:47:52;;;;;;;13.90;9.75;;;5.70;99.90;;;;;;5008705;28;20041;-66
2023/10/23 06:50:18;;;;;;;16.10;9.90;;;5.60;99.90;;;;;;5002257;28;20086;-65
2023/10/23 06:52:44;;;;;;;12.60;9.75;;;5.80;99.90;;;;;;4991521;28;20404;-66
2023/10/23 06:55:10;;;;;;;18.80;10.82;;;5.70;99.90;;;;;;4994488;28;20037;-65
2023/10/23 06:57:36;;;;;;;15.18;10.10;;;5.70;99.90;;;;;;4982735;28;20099;-65
2023/10/23 07:00:02;;;;;;;16.83;11.07;;;5.70;99.90;;;;;;4995457;28;20048;-65
2023/10/23 07:02:28;;;;;;;18.48;11.65;;;5.70;99.90;;;;;;4990778;28;20502;-65
2023/10/23 07:04:54;;;;;;;18.02;11.73;;;5.80;99.90;;;;;;4989360;28;20922;-65
2023/10/23 07:07:20;;;;;;;13.75;10.07;;;5.80;99.90;;;;;;4973601;28;20033;-66
2023/10/23 07:09:45;;;;;;;14.02;10.98;;;5.80;99.90;;;;;;4984007;28;20041;-65
2023/10/23 07:12:12;;;;;;;17.10;12.63;;;5.90;99.90;;;;;;4982275;28;20041;-66
2023/10/23 07:14:38;;;;;;;25.05;14.18;;;5.90;99.90;;;;;;4992335;28;20045;-65
2023/10/23 07:17:04;;;;;;;16.65;12.02;;;5.90;99.90;;;;;;4994410;28;20621;-65
2023/10/23 07:19:30;;;;;;;22.52;12.27;;;5.90;99.90;;;;;;5010889;28;20033;-65
2023/10/23 07:21:56;;;;;;;18.92;11.68;;;5.90;99.90;;;;;;5014076;28;20049;-65
2023/10/23 07:24:22;;;;;;;17.75;11.98;;;6.00;99.90;;;;;;4992230;28;20153;-65
2023/10/23 07:26:47;;;;;;;18.85;11.52;;;6.00;99.90;;;;;;4992562;28;20061;-65
2023/10/23 07:29:13;;;;;;;15.75;11.82;;;6.10;99.90;;;;;;4998407;28;20046;-65
2023/10/23 07:31:39;;;;;;;17.95;12.25;;;6.10;99.90;;;;;;5002326;28;20037;-65
2023/10/23 07:34:04;;;;;;;16.67;12.23;;;6.10;99.90;;;;;;4998835;28;20041;-66
2023/10/23 07:36:30;;;;;;;20.27;11.70;;;6.10;99.90;;;;;;4997913;28;20049;-65
2023/10/23 07:38:56;;;;;;;19.00;12.30;;;6.10;99.90;;;;;;5007943;28;20053;-65
2023/10/23 07:41:22;;;;;;;19.00;12.55;;;6.20;99.90;;;;;;5000043;28;20393;-66
2023/10/23 07:43:48;;;;;;;19.30;12.88;;;6.20;99.90;;;;;;4993137;28;20064;-65
2023/10/23 07:46:14;;;;;;;17.33;13.18;;;6.20;99.90;;;;;;5024935;28;20087;-65
2023/10/23 07:48:40;;;;;;;19.35;13.05;;;6.30;99.90;;;;;;5009360;28;20632;-66
2023/10/23 07:51:06;;;;;;;24.77;14.00;;;6.40;99.90;;;;;;5034673;28;20053;-66
2023/10/23 07:53:32;;;;;;;20.73;14.48;;;6.40;99.90;;;;;;5015433;28;21586;-65
2023/10/23 07:55:59;;;;;;;21.20;13.93;;;6.50;99.90;;;;;;5020899;28;20592;-66
2023/10/23 07:58:25;;;;;;;20.27;14.18;;;6.60;99.90;;;;;;5017977;28;20041;-66
2023/10/23 08:00:54;;;;;;;19.40;14.57;;;6.70;99.90;;;;;;5019737;28;20118;-65
2023/10/23 08:03:20;;;;;;;23.20;15.00;;;6.80;99.90;;;;;;5001191;28;20033;-66
2023/10/23 08:05:46;;;;;;;21.08;14.10;;;6.90;99.90;;;;;;5001148;28;20475;-65
2023/10/23 08:08:12;;;;;;;22.42;15.15;;;7.00;99.90;;;;;;5019795;28;20033;-65
2023/10/23 08:10:38;;;;;;;21.50;15.13;;;7.10;99.90;;;;;;5015387;28;20469;-66
2023/10/23 08:13:04;;;;;;;26.30;16.33;;;7.30;99.90;;;;;;5014468;28;20131;-66
2023/10/23 08:15:30;;;;;;;22.67;16.30;;;7.40;99.90;;;;;;5013875;28;20048;-66
2023/10/23 08:17:55;;;;;;;26.63;16.33;;;7.50;99.90;;;;;;5018009;28;20452;-66
2023/10/23 08:20:21;;;;;;;22.38;16.02;;;7.60;99.90;;;;;;5013452;28;20044;-65
2023/10/23 08:22:47;;;;;;;24.90;16.10;;;7.70;99.90;;;;;;5030488;28;20464;-65
2023/10/23 08:25:14;;;;;;;23.70;16.67;;;7.90;99.90;;;;;;5019527;28;20041;-65
2023/10/23 08:27:39;;;;;;;27.98;16.95;;;8.00;99.90;;;;;;5016562;28;20037;-66
2023/10/23 08:30:06;;;;;;;25.70;16.13;;;8.20;99.90;;;;;;5031470;28;20045;-66
2023/10/23 08:32:35;;;;;;;22.08;16.23;;;8.30;99.90;;;;;;5021642;28;20118;-66
2023/10/23 08:35:01;;;;;;;23.50;16.92;;;8.50;99.90;;;;;;5017151;28;20052;-65
2023/10/23 08:37:27;;;;;;;22.88;15.25;;;8.60;99.90;;;;;;5017834;28;20047;-66
2023/10/23 08:39:52;;;;;;;24.58;15.73;;;8.70;99.90;;;;;;5013100;28;20159;-66
2023/10/23 08:42:18;;;;;;;22.33;16.48;;;8.90;99.90;;;;;;5007234;28;20041;-65
2023/10/23 08:44:45;;;;;;;21.02;15.88;;;9.10;99.90;;;;;;5027089;28;20061;-66
2023/10/23 08:47:11;;;;;;;24.25;15.73;;;9.20;99.90;;;;;;5015333;28;20120;-65
2023/10/23 08:49:36;;;;;;;26.42;16.00;;;9.40;99.90;;;;;;5013889;28;20048;-66
2023/10/23 08:52:06;;;;;;;24.88;17.75;;;9.50;99.90;;;;;;5011771;28;20067;-66
2023/10/23 08:54:32;;;;;;;25.55;17.33;;;9.70;99.90;;;;;;5014554;28;20522;-65
2023/10/23 08:57:00;;;;;;;23.85;16.98;;;9.80;99.90;;;;;;5023195;28;20041;-66
2023/10/23 08:59:26;;;;;;;23.05;15.60;;;10.00;99.90;;;;;;5037128;28;20044;-66
2023/10/23 09:01:52;;;;;;;18.40;13.70;;;10.20;99.90;;;;;;5022911;28;20415;-66
2023/10/23 09:04:18;;;;;;;17.63;12.45;;;10.30;99.90;;;;;;5037064;28;20515;-66
2023/10/23 09:06:44;;;;;;;17.92;12.55;;;10.40;99.90;;;;;;5032085;28;20119;-65
2023/10/23 09:09:09;;;;;;;20.90;12.57;;;10.50;99.90;;;;;;5020040;28;20117;-66
2023/10/23 09:11:46;;;;;;;18.70;12.48;;;10.70;99.90;;;;;;5027162;28;20049;-66
2023/10/23 09:14:25;;;;;;;18.08;11.90;;;10.80;99.90;;;;;;5034163;28;20041;-65
2023/10/23 09:16:53;;;;;;;14.98;11.05;;;11.00;99.90;;;;;;5035779;28;20565;-66
2023/10/23 09:19:36;;;;;;;14.38;10.45;;;11.20;99.90;;;;;;5018997;28;20407;-66
2023/10/23 09:22:08;;;;;;;14.73;11.05;;;11.30;99.90;;;;;;5013323;28;20048;-66
2023/10/23 09:24:36;;;;;;;16.08;12.45;;;11.40;99.90;;;;;;5027525;28;20049;-66
2023/10/23 09:27:03;;;;;;;20.98;16.65;;;11.60;99.90;;;;;;5008537;28;20048;-66
2023/10/23 09:29:28;;;;;;;26.08;19.45;;;11.70;99.90;;;;;;5016466;28;20519;-65
2023/10/23 09:31:56;;;;;;;26.45;20.38;;;11.80;99.90;;;;;;5016696;28;20041;-66
2023/10/23 09:34:22;;;;;;;26.35;20.17;;;12.00;99.90;;;;;;5015334;28;20162;-66
2023/10/23 09:36:51;;;;;;;23.65;17.35;;;12.10;99.90;;;;;;5016499;28;20045;-67
2023/10/23 09:39:18;;;;;;;19.92;14.07;;;12.20;99.90;;;;;;5035529;28;20624;-66
2023/10/23 09:41:47;;;;;;;18.77;14.60;;;12.40;99.90;;;;;;5019569;28;20169;-66
2023/10/23 09:44:14;;;;;;;23.55;16.30;;;12.50;99.90;;;;;;5036135;28;20087;-66
2023/10/23 09:46:42;;;;;;;22.52;15.30;;;12.70;99.90;;;;;;5002192;28;20049;-66
2023/10/23 09:49:09;;;;;;;20.25;15.27;;;12.80;99.90;;;;;;5001641;28;20070;-66
2023/10/23 09:51:40;;;;;;;26.83;22.05;;;13.00;99.90;;;;;;5016389;28;20381;-66
2023/10/23 09:54:17;;;;;;;28.15;21.42;;;13.10;99.90;;;;;;5031398;28;20649;-65
2023/10/23 09:56:53;;;;;;;18.27;13.50;;;13.30;99.90;;;;;;5042035;28;20132;-66
2023/10/23 09:59:29;;;;;;;16.63;12.13;;;13.40;99.90;;;;;;5024595;28;20040;-66
2023/10/23 10:01:59;;;;;;;16.17;12.25;;;13.50;99.90;;;;;;5014936;28;20416;-66
2023/10/23 10:04:32;;;;;;;12.15;9.63;;;13.60;99.90;;;;;;5010254;28;20675;-66
2023/10/23 10:07:12;;;;;;;10.10;8.45;;;13.80;99.90;;;;;;5034079;28;20090;-66
2023/10/23 10:09:38;;;;;;;12.43;9.38;;;13.90;99.90;;;;;;5013543;28;20037;-66
2023/10/23 10:12:04;;;;;;;11.73;8.88;;;14.00;99.90;;;;;;5017981;28;20041;-65
2023/10/23 10:14:32;;;;;;;12.65;9.88;;;14.20;99.90;;;;;;5023993;28;20029;-66
2023/10/23 10:16:59;;;;;;;15.77;11.52;;;14.30;99.90;;;;;;5015844;28;20082;-65
2023/10/23 10:19:26;;;;;;;11.82;8.38;;;14.40;99.90;;;;;;5019376;28;20119;-66
2023/10/23 10:22:06;;;;;;;6.35;5.32;;;14.60;99.90;;;;;;5016378;28;20503;-65
2023/10/23 10:24:37;;;;;;;6.78;4.38;;;14.70;99.90;;;;;;5029425;28;20044;-65
2023/10/23 10:27:03;;;;;;;7.63;4.10;;;14.80;99.90;;;;;;5016885;28;20665;-65
2023/10/23 10:29:30;;;;;;;3.97;2.90;;;14.90;99.90;;;;;;5023936;28;20055;-66
2023/10/23 10:32:08;;;;;;;5.85;2.35;;;15.00;99.90;;;;;;5014086;28;20120;-65
2023/10/23 10:34:48;;;;;;;5.25;2.17;;;15.20;99.90;;;;;;5034942;28;20048;-66
2023/10/23 10:37:14;;;;;;;5.20;2.60;;;15.30;99.90;;;;;;5033771;28;20053;-65
2023/10/23 10:40:03;;;;;;;4.07;2.30;;;15.40;99.90;;;;;;5014557;28;20049;-65
2023/10/23 10:42:30;;;;;;;3.42;2.33;;;15.50;99.90;;;;;;5016713;28;20040;-66
2023/10/23 10:45:03;;;;;;;5.03;2.22;;;15.60;99.90;;;;;;5017536;28;20049;-65
2023/10/23 10:47:46;;;;;;;4.38;2.40;;;15.70;99.90;;;;;;5035687;28;20083;-65
2023/10/23 10:50:12;;;;;;;6.65;2.40;;;15.80;99.90;;;;;;5028126;28;20052;-65
2023/10/23 10:52:43;;;;;;;3.92;2.33;;;15.90;99.90;;;;;;5013792;28;20436;-66
2023/10/23 10:55:11;;;;;;;4.53;2.28;;;16.00;99.90;;;;;;5034319;28;20068;-65
2023/10/23 10:57:41;;;;;;;4.32;1.83;;;16.10;99.90;;;;;;5030590;28;20106;-65
2023/10/23 11:00:07;;;;;;;6.82;1.70;;;16.10;99.90;;;;;;5012232;28;20701;-65
2023/10/23 11:02:33;;;;;;;4.30;1.50;;;16.10;99.90;;;;;;5027618;28;20049;-66
2023/10/23 11:04:58;;;;;;;4.07;1.60;;;16.20;99.90;;;;;;5013274;28;20066;-65
2023/10/23 11:07:27;;;;;;;1.30;1.20;;;16.30;99.90;;;;;;5016484;28;20071;-65
2023/10/23 11:09:53;;;;;;;2.88;1.45;;;16.30;99.90;;;;;;5016715;28;20124;-66
2023/10/23 11:12:20;;;;;;;5.97;1.60;;;16.40;99.90;;;;;;5029465;28;20495;-66
2023/10/23 11:14:47;;;;;;;3.83;1.58;;;16.40;99.90;;;;;;5015804;28;20049;-66
2023/10/23 11:17:13;;;;;;;6.45;1.55;;;16.50;99.90;;;;;;5006901;28;20058;-66
2023/10/23 11:19:41;;;;;;;2.83;1.20;;;16.60;99.90;;;;;;5012079;28;20041;-66
2023/10/23 11:22:21;;;;;;;3.88;1.30;;;16.60;99.90;;;;;;4999574;28;21422;-66
2023/10/23 11:24:47;;;;;;;2.92;1.23;;;16.60;99.90;;;;;;5006867;28;20438;-65
2023/10/23 11:27:13;;;;;;;1.90;1.27;;;16.60;99.90;;;;;;5028603;28;20051;-65
2023/10/23 11:29:44;;;;;;;2.38;1.08;;;16.70;99.90;;;;;;5033175;28;20060;-66
2023/10/23 11:32:18;;;;;;;4.93;1.40;;;16.80;99.90;;;;;;5028306;28;20807;-66
2023/10/23 11:34:47;;;;;;;5.53;1.50;;;16.90;99.90;;;;;;5031934;28;20045;-66
2023/10/23 11:37:13;;;;;;;3.33;1.40;;;17.00;99.90;;;;;;5038799;28;20071;-66
2023/10/23 11:39:43;;;;;;;4.38;2.00;;;17.10;99.90;;;;;;5014604;28;20033;-66
2023/10/23 11:42:10;;;;;;;5.45;2.45;;;17.20;99.90;;;;;;5024053;28;20049;-66
2023/10/23 11:44:36;;;;;;;3.20;2.28;;;17.30;99.90;;;;;;5043034;28;20098;-65
2023/10/23 11:47:05;;;;;;;4.22;2.08;;;17.30;99.90;;;;;;5035030;28;20048;-66
2023/10/23 11:49:34;;;;;;;3.22;2.00;;;17.40;99.90;;;;;;5035891;28;20049;-66
2023/10/23 11:52:01;;;;;;;3.30;2.03;;;17.40;99.90;;;;;;5033758;28;20518;-65
2023/10/23 11:54:27;;;;;;;2.30;1.80;;;17.40;99.90;;;;;;5033615;28;20045;-65
2023/10/23 11:57:00;;;;;;;3.25;1.48;;;17.40;99.90;;;;;;5016128;28;20037;-66
2023/10/23 11:59:26;;;;;;;;;;;17.40;99.90;;;;;;5031783;28;20491;-66
2023/10/23 12:01:56;;;;;;;2.47;1.10;;;17.40;99.90;;;;;;5021674;28;19928;-66
2023/10/23 12:04:23;;;;;;;2.45;1.33;;;17.40;99.90;;;;;;5017080;28;20460;-65
2023/10/23 12:06:49;;;;;;;2.25;0.95;;;17.40;99.90;;;;;;5018873;28;20035;-65
2023/10/23 12:09:14;;;;;;;2.58;1.20;;;17.40;99.90;;;;;;5024512;28;20044;-66
2023/10/23 12:11:40;;;;;;;3.65;1.05;;;17.40;99.90;;;;;;5037705;28;20044;-65
2023/10/23 12:14:06;;;;;;;3.15;1.00;;;17.40;99.90;;;;;;5021649;28;20504;-66
2023/10/23 12:16:32;;;;;;;4.07;1.00;;;17.40;99.90;;;;;;5036699;28;20622;-66
2023/10/23 12:18:59;;;;;;;2.13;1.27;;;17.40;99.90;;;;;;5020812;28;20127;-66
2023/10/23 12:21:25;;;;;;;2.38;1.20;;;17.40;99.90;;;;;;5022379;28;20041;-65
2023/10/23 12:23:51;;;;;;;3.75;1.00;;;17.30;99.90;;;;;;5022838;28;20149;-65
2023/10/23 12:26:21;;;;;;;1.17;0.82;;;17.30;99.90;;;;;;5034228;28;20127;-66
2023/10/23 12:28:47;;;;;;;2.55;1.13;;;17.30;99.90;;;;;;5017475;28;20514;-65
2023/10/23 12:31:13;;;;;;;2.03;1.00;;;17.20;99.90;;;;;;5022917;28;20045;-65
2023/10/23 12:33:38;;;;;;;4.03;1.38;;;17.20;99.90;;;;;;5036110;28;20052;-66
2023/10/23 12:36:05;;;;;;;2.63;1.30;;;17.20;99.90;;;;;;5049553;28;20415;-65
2023/10/23 12:38:31;;;;;;;6.70;1.30;;;17.10;99.90;;;;;;5032527;28;20045;-66
2023/10/23 12:41:00;;;;;;;3.47;1.60;;;17.10;99.90;;;;;;5039130;28;20064;-66
2023/10/23 12:43:26;;;;;;;3.13;1.40;;;17.10;99.90;;;;;;5033255;28;20061;-67